createdAt,value
2018-09-26T00:01:40.260Z,10.79
2018-09-26T00:04:11.256Z,10.74
2018-09-26T00:06:39.620Z,10.52
2018-09-26T00:09:10.424Z,10.67
2018-09-26T00:11:38.941Z,10.68
2018-09-26T00:14:07.328Z,10.74
2018-09-26T00:16:35.874Z,10.77
2018-09-26T00:19:04.275Z,10.73
2018-09-26T00:21:32.624Z,10.57
2018-09-26T00:24:00.977Z,10.61
2018-09-26T00:26:29.318Z,10.60
2018-09-26T00:28:57.660Z,10.62
2018-09-26T00:31:26.137Z,10.70
2018-09-26T00:33:54.497Z,10.50
2018-09-26T00:36:22.890Z,10.60
2018-09-26T00:38:51.269Z,10.63
2018-09-26T00:41:19.604Z,10.64
2018-09-26T00:43:48.156Z,10.77
2018-09-26T00:46:16.464Z,10.58
2018-09-26T00:48:44.837Z,10.58
2018-09-26T00:51:13.147Z,10.57
2018-09-26T00:53:41.505Z,10.61
2018-09-26T00:56:09.824Z,10.52
2018-09-26T00:58:38.180Z,10.49
2018-09-26T01:01:06.516Z,10.48
2018-09-26T01:03:34.848Z,10.62
2018-09-26T01:06:03.167Z,10.52
2018-09-26T01:08:31.494Z,10.60
2018-09-26T01:10:59.807Z,10.51
2018-09-26T01:13:28.431Z,10.38
2018-09-26T01:15:56.759Z,10.59
2018-09-26T01:18:25.068Z,10.60
2018-09-26T01:20:53.404Z,10.59
2018-09-26T01:23:21.719Z,10.73
2018-09-26T01:25:50.064Z,10.71
2018-09-26T01:28:18.368Z,10.75
2018-09-26T01:30:46.700Z,10.67
2018-09-26T01:33:15.020Z,10.76
2018-09-26T01:35:43.420Z,10.70
2018-09-26T01:38:11.728Z,10.56
2018-09-26T01:40:40.064Z,10.66
2018-09-26T01:43:08.364Z,10.57
2018-09-26T01:45:36.716Z,10.60
2018-09-26T01:48:05.045Z,10.57
2018-09-26T01:50:33.405Z,10.68
2018-09-26T01:53:01.729Z,10.61
2018-09-26T01:55:30.120Z,10.76
2018-09-26T01:57:58.449Z,10.68
2018-09-26T02:00:26.801Z,10.86
2018-09-26T02:02:55.124Z,10.66
2018-09-26T02:05:23.489Z,10.84
2018-09-26T02:07:51.993Z,10.80
2018-09-26T02:10:20.388Z,10.80
2018-09-26T02:12:48.719Z,10.79
2018-09-26T02:15:17.133Z,10.77
2018-09-26T02:17:45.489Z,10.89
2018-09-26T02:20:13.833Z,10.90
2018-09-26T02:22:42.208Z,10.90
2018-09-26T02:25:10.537Z,10.81
2018-09-26T02:27:38.905Z,10.87
2018-09-26T02:30:07.409Z,10.77
2018-09-26T02:32:35.748Z,10.94
2018-09-26T02:35:04.114Z,10.84
2018-09-26T02:37:33.477Z,10.93
2018-09-26T02:40:01.844Z,10.87
2018-09-26T02:42:30.213Z,10.85
2018-09-26T02:44:58.560Z,11.08
2018-09-26T02:47:26.963Z,11.02
2018-09-26T02:49:55.291Z,10.80
2018-09-26T02:52:23.640Z,10.95
2018-09-26T02:54:51.964Z,10.92
2018-09-26T02:57:20.315Z,10.72
2018-09-26T02:59:48.644Z,10.84
2018-09-26T03:02:17.036Z,10.85
2018-09-26T03:04:45.356Z,10.84
2018-09-26T03:07:13.683Z,10.57
2018-09-26T03:09:42.036Z,10.69
2018-09-26T03:12:10.355Z,10.75
2018-09-26T03:14:38.900Z,10.77
2018-09-26T03:17:07.320Z,10.72
2018-09-26T03:19:35.683Z,10.60
2018-09-26T03:22:04.349Z,10.73
2018-09-26T03:24:32.696Z,10.69
2018-09-26T03:27:01.016Z,10.73
2018-09-26T03:29:29.360Z,10.71
2018-09-26T03:31:57.681Z,10.51
2018-09-26T03:34:26.280Z,10.72
2018-09-26T03:36:54.602Z,10.71
2018-09-26T03:39:22.960Z,10.68
2018-09-26T03:41:51.292Z,10.46
2018-09-26T03:44:19.687Z,10.45
2018-09-26T03:46:48.000Z,10.43
2018-09-26T03:49:16.400Z,10.49
2018-09-26T03:51:44.718Z,10.47
2018-09-26T03:54:13.068Z,10.48
2018-09-26T03:56:41.396Z,10.42
2018-09-26T03:59:09.749Z,10.44
2018-09-26T04:01:38.080Z,10.37
2018-09-26T04:04:06.677Z,10.42
2018-09-26T04:06:35.000Z,10.42
2018-09-26T04:09:03.824Z,10.53
2018-09-26T04:11:32.160Z,10.22
2018-09-26T04:14:00.476Z,10.30
2018-09-26T04:16:28.856Z,10.31
2018-09-26T04:18:57.216Z,10.16
2018-09-26T04:21:25.551Z,10.35
2018-09-26T04:23:53.887Z,10.51
2018-09-26T04:26:22.304Z,10.47
2018-09-26T04:28:50.596Z,10.43
2018-09-26T04:31:18.956Z,10.38
2018-09-26T04:33:47.327Z,10.30
2018-09-26T04:36:15.647Z,10.13
2018-09-26T04:38:44.028Z,10.43
2018-09-26T04:41:12.356Z,10.19
2018-09-26T04:43:40.701Z,10.34
2018-09-26T04:46:09.026Z,10.36
2018-09-26T04:48:37.325Z,10.32
2018-09-26T04:51:05.678Z,10.27
2018-09-26T04:53:34.081Z,10.34
2018-09-26T04:56:02.362Z,10.43
2018-09-26T04:58:30.719Z,10.27
2018-09-26T05:00:59.096Z,10.41
2018-09-26T05:03:27.580Z,10.30
2018-09-26T05:05:55.905Z,10.32
2018-09-26T05:08:24.344Z,10.30
2018-09-26T05:10:52.612Z,10.29
2018-09-26T05:13:21.019Z,10.32
2018-09-26T05:15:49.383Z,10.20
2018-09-26T05:18:17.749Z,10.20
2018-09-26T05:20:46.072Z,10.38
2018-09-26T05:23:14.445Z,10.33
2018-09-26T05:25:42.751Z,10.23
2018-09-26T05:28:11.116Z,10.24
2018-09-26T05:30:39.440Z,10.30
2018-09-26T05:33:07.820Z,10.31
2018-09-26T05:35:36.135Z,10.17
2018-09-26T05:38:04.496Z,10.27
2018-09-26T05:40:32.816Z,10.37
2018-09-26T05:43:01.678Z,10.28
2018-09-26T05:45:30.088Z,10.31
2018-09-26T05:47:58.443Z,10.21
2018-09-26T05:50:26.799Z,10.36
2018-09-26T05:52:55.099Z,10.33
2018-09-26T05:55:23.423Z,10.38
2018-09-26T05:57:51.719Z,10.38
2018-09-26T06:00:20.047Z,10.42
2018-09-26T06:02:48.375Z,10.31
2018-09-26T06:05:16.710Z,10.35
2018-09-26T06:07:45.802Z,10.54
2018-09-26T06:10:14.139Z,10.54
2018-09-26T06:12:42.502Z,10.58
2018-09-26T06:15:10.821Z,10.73
2018-09-26T06:17:39.119Z,10.60
2018-09-26T06:20:08.734Z,10.69
2018-09-26T06:22:37.027Z,10.62
2018-09-26T06:25:05.563Z,10.70
2018-09-26T06:27:34.495Z,10.87
2018-09-26T06:30:03.063Z,10.97
2018-09-26T06:32:31.366Z,10.93
2018-09-26T06:34:59.731Z,11.04
2018-09-26T06:37:28.038Z,10.85
2018-09-26T06:39:56.651Z,10.89
2018-09-26T06:42:24.958Z,10.92
2018-09-26T06:44:53.251Z,10.99
2018-09-26T06:47:21.578Z,11.03
2018-09-26T06:49:49.924Z,11.19
2018-09-26T06:52:18.335Z,11.28
2018-09-26T06:54:46.689Z,11.30
2018-09-26T06:57:15.053Z,11.27
2018-09-26T06:59:43.376Z,11.32
2018-09-26T07:02:11.764Z,11.51
2018-09-26T07:04:40.092Z,11.56
2018-09-26T07:07:08.436Z,11.49
2018-09-26T07:09:36.772Z,11.64
2018-09-26T07:12:05.138Z,11.54
2018-09-26T07:14:33.456Z,11.65
2018-09-26T07:17:01.801Z,11.82
2018-09-26T07:19:30.141Z,11.83
2018-09-26T07:21:58.487Z,11.91
2018-09-26T07:24:26.847Z,11.77
2018-09-26T07:26:55.212Z,11.95
2018-09-26T07:29:23.560Z,12.00
2018-09-26T07:31:51.909Z,11.89
2018-09-26T07:34:25.433Z,12.04
2018-09-26T07:36:53.857Z,12.23
2018-09-26T07:39:22.202Z,12.17
2018-09-26T07:41:50.548Z,12.29
2018-09-26T07:44:18.894Z,12.32
2018-09-26T07:46:47.267Z,12.33
2018-09-26T07:49:15.768Z,12.48
2018-09-26T07:51:44.148Z,12.43
2018-09-26T07:54:12.540Z,12.49
2018-09-26T07:56:40.932Z,12.40
2018-09-26T07:59:09.360Z,12.60
2018-09-26T08:01:37.658Z,12.94
2018-09-26T08:04:06.020Z,13.12
2018-09-26T08:06:34.440Z,13.21
2018-09-26T08:09:02.845Z,13.38
2018-09-26T08:11:31.223Z,13.10
2018-09-26T08:13:59.572Z,13.06
2018-09-26T08:16:27.924Z,12.90
2018-09-26T08:18:56.281Z,12.96
2018-09-26T08:21:24.960Z,12.99
2018-09-26T08:23:53.371Z,13.03
2018-09-26T08:26:21.665Z,12.86
2018-09-26T08:28:50.021Z,13.05
2018-09-26T08:31:18.488Z,13.28
2018-09-26T08:33:46.868Z,13.74
2018-09-26T08:36:15.220Z,13.40
2018-09-26T08:38:43.585Z,13.60
2018-09-26T08:41:11.948Z,13.57
2018-09-26T08:43:40.337Z,13.52
2018-09-26T08:46:08.717Z,13.57
2018-09-26T08:48:37.101Z,13.78
2018-09-26T08:51:05.441Z,13.92
2018-09-26T08:53:33.878Z,13.98
2018-09-26T08:56:02.192Z,13.85
2018-09-26T08:58:30.564Z,14.10
2018-09-26T09:00:58.930Z,14.04
2018-09-26T09:03:27.300Z,14.28
2018-09-26T09:05:55.661Z,14.13
2018-09-26T09:08:24.032Z,14.14
2018-09-26T09:10:52.401Z,14.13
2018-09-26T09:13:20.740Z,14.33
2018-09-26T09:15:49.076Z,14.28
2018-09-26T09:18:17.867Z,14.29
2018-09-26T09:20:46.223Z,14.29
2018-09-26T09:23:14.565Z,14.27
2018-09-26T09:25:42.923Z,14.46
2018-09-26T09:28:11.279Z,14.34
2018-09-26T09:30:39.596Z,14.42
2018-09-26T09:33:07.947Z,14.52
2018-09-26T09:35:36.291Z,14.42
2018-09-26T09:38:04.645Z,14.49
2018-09-26T09:40:32.964Z,14.50
2018-09-26T09:43:01.289Z,14.66
2018-09-26T09:45:29.624Z,14.57
2018-09-26T09:47:57.959Z,14.37
2018-09-26T09:50:26.299Z,14.40
2018-09-26T09:52:54.959Z,14.51
2018-09-26T09:55:23.300Z,14.96
2018-09-26T09:57:51.612Z,15.28
2018-09-26T10:00:20.004Z,15.38
2018-09-26T10:02:48.455Z,15.09
2018-09-26T10:05:16.665Z,15.26
2018-09-26T10:07:44.984Z,14.84
2018-09-26T10:10:13.323Z,15.10
2018-09-26T10:12:41.658Z,14.96
2018-09-26T10:15:10.060Z,15.00
2018-09-26T10:17:38.459Z,15.09
2018-09-26T10:20:06.778Z,14.78
2018-09-26T10:22:35.100Z,14.76
2018-09-26T10:25:03.477Z,14.68
2018-09-26T10:27:31.815Z,14.50
2018-09-26T10:30:00.140Z,14.67
2018-09-26T10:32:28.478Z,14.79
2018-09-26T10:34:56.902Z,14.79
2018-09-26T10:37:25.204Z,14.89
2018-09-26T10:39:53.565Z,15.33
2018-09-26T10:42:21.892Z,15.16
2018-09-26T10:44:50.244Z,15.37
2018-09-26T10:47:19.465Z,15.18
2018-09-26T10:49:47.816Z,15.10
2018-09-26T10:52:16.156Z,15.44
2018-09-26T10:54:44.546Z,15.13
2018-09-26T10:57:12.884Z,15.34
2018-09-26T10:59:41.246Z,15.48
2018-09-26T11:02:09.692Z,15.79
2018-09-26T11:04:38.057Z,15.83
2018-09-26T11:07:06.347Z,15.50
2018-09-26T11:09:34.642Z,15.61
2018-09-26T11:12:02.930Z,15.62
2018-09-26T11:14:31.226Z,16.04
2018-09-26T11:16:59.568Z,15.70
2018-09-26T11:19:27.921Z,15.93
2018-09-26T11:21:56.302Z,16.14
2018-09-26T11:24:24.660Z,16.22
2018-09-26T11:26:52.988Z,16.07
2018-09-26T11:29:21.386Z,16.02
2018-09-26T11:31:49.732Z,16.03
2018-09-26T11:34:18.175Z,16.25
2018-09-26T11:36:46.521Z,16.12
2018-09-26T11:39:14.901Z,16.38
2018-09-26T11:41:43.299Z,16.51
2018-09-26T11:44:11.648Z,16.18
2018-09-26T11:46:39.977Z,16.47
2018-09-26T11:49:08.369Z,16.61
2018-09-26T11:51:36.710Z,16.45
2018-09-26T11:54:05.081Z,16.44
2018-09-26T11:56:33.420Z,16.25
2018-09-26T11:59:01.826Z,16.48
2018-09-26T12:01:30.161Z,16.45
2018-09-26T12:03:58.509Z,16.45
2018-09-26T12:06:26.850Z,16.57
2018-09-26T12:08:55.208Z,16.32
2018-09-26T12:11:23.619Z,16.26
2018-09-26T12:13:52.005Z,16.28
2018-09-26T12:16:20.319Z,16.37
2018-09-26T12:18:48.908Z,16.30
2018-09-26T12:21:17.320Z,16.10
2018-09-26T12:23:45.669Z,16.26
2018-09-26T12:26:14.040Z,16.45
2018-09-26T12:28:42.401Z,16.69
2018-09-26T12:31:10.733Z,16.74
2018-09-26T12:33:39.104Z,16.61
2018-09-26T12:36:07.728Z,16.51
2018-09-26T12:38:36.101Z,16.53
2018-09-26T12:41:04.453Z,16.34
2018-09-26T12:43:32.953Z,16.53
2018-09-26T12:46:01.571Z,16.55
2018-09-26T12:48:29.974Z,16.65
2018-09-26T12:50:58.328Z,16.72
2018-09-26T12:53:26.810Z,16.40
2018-09-26T12:55:55.105Z,16.40
2018-09-26T12:58:23.510Z,16.49
2018-09-26T13:00:51.825Z,16.57
2018-09-26T13:03:20.330Z,16.56
2018-09-26T13:05:48.692Z,16.47
2018-09-26T13:08:17.106Z,16.46
2018-09-26T13:10:45.436Z,16.43
2018-09-26T13:13:13.797Z,16.43
2018-09-26T13:15:42.168Z,16.32
2018-09-26T13:18:10.519Z,16.35
2018-09-26T13:20:38.898Z,16.41
2018-09-26T13:23:07.310Z,16.36
2018-09-26T13:25:35.842Z,16.33
2018-09-26T13:28:04.430Z,16.30
2018-09-26T13:30:32.760Z,16.35
2018-09-26T13:33:01.100Z,16.31
2018-09-26T13:35:29.464Z,16.24
2018-09-26T13:37:57.787Z,16.23
2018-09-26T13:40:26.213Z,16.26
2018-09-26T13:42:54.469Z,16.05
2018-09-26T13:45:22.853Z,16.28
2018-09-26T13:47:51.192Z,16.35
2018-09-26T13:50:19.645Z,16.52
2018-09-26T13:52:48.007Z,15.53
2018-09-26T13:55:16.381Z,15.50
2018-09-26T13:57:44.780Z,15.40
2018-09-26T14:00:16.074Z,15.30
2018-09-26T14:02:45.661Z,15.31
2018-09-26T14:05:14.033Z,15.45
2018-09-26T14:07:42.389Z,15.35
2018-09-26T14:10:10.777Z,15.25
2018-09-26T14:12:39.141Z,15.23
2018-09-26T14:15:07.845Z,15.31
2018-09-26T14:17:36.213Z,15.14
2018-09-26T14:20:04.706Z,15.18
2018-09-26T14:22:33.038Z,15.17
2018-09-26T14:25:01.402Z,15.27
2018-09-26T14:27:29.756Z,15.26
2018-09-26T14:29:58.121Z,15.32
2018-09-26T14:32:26.493Z,15.34
2018-09-26T14:34:54.852Z,15.28
2018-09-26T14:37:23.193Z,15.19
2018-09-26T14:39:51.633Z,15.01
2018-09-26T14:42:19.983Z,14.99
2018-09-26T14:44:48.368Z,14.95
2018-09-26T14:47:16.824Z,14.88
2018-09-26T14:49:45.199Z,15.00
2018-09-26T14:52:13.572Z,14.92
2018-09-26T14:54:42.181Z,14.89
2018-09-26T14:57:10.548Z,14.87
2018-09-26T14:59:38.897Z,14.96
2018-09-26T15:02:07.437Z,15.04
2018-09-26T15:04:35.820Z,14.87
2018-09-26T15:07:04.113Z,14.81
2018-09-26T15:09:32.464Z,14.81
2018-09-26T15:12:00.840Z,14.82
2018-09-26T15:14:29.187Z,14.86
2018-09-26T15:16:57.572Z,14.89
2018-09-26T15:19:26.205Z,14.96
2018-09-26T15:21:54.576Z,14.93
2018-09-26T15:24:23.005Z,14.95
2018-09-26T15:26:51.300Z,14.95
2018-09-26T15:29:19.632Z,14.98
2018-09-26T15:31:47.984Z,14.89
2018-09-26T15:34:16.319Z,14.79
2018-09-26T15:36:44.671Z,14.80
2018-09-26T15:39:12.971Z,14.79
2018-09-26T15:41:41.386Z,14.77
2018-09-26T15:44:09.658Z,14.67
2018-09-26T15:46:38.124Z,14.61
2018-09-26T15:49:07.007Z,14.61
2018-09-26T15:51:35.532Z,14.63
2018-09-26T15:54:03.868Z,14.71
2018-09-26T15:56:32.188Z,14.75
2018-09-26T15:59:01.232Z,14.79
2018-09-26T16:01:35.201Z,14.85
2018-09-26T16:04:03.495Z,14.80
2018-09-26T16:06:31.828Z,14.85
2018-09-26T16:09:00.110Z,14.89
2018-09-26T16:11:28.413Z,14.95
2018-09-26T16:13:56.744Z,14.98
2018-09-26T16:17:49.546Z,14.89
2018-09-26T16:20:17.964Z,14.90
2018-09-26T16:22:46.229Z,14.86
2018-09-26T16:25:14.581Z,14.82
2018-09-26T16:27:42.913Z,14.70
2018-09-26T16:30:11.633Z,14.71
2018-09-26T16:32:39.953Z,14.47
2018-09-26T16:37:58.656Z,14.24
2018-09-26T16:40:27.095Z,14.13
2018-09-26T16:42:55.327Z,14.13
2018-09-26T16:45:23.672Z,14.11
2018-09-26T16:47:52.011Z,14.20
2018-09-26T16:50:20.363Z,14.10
2018-09-26T16:52:48.872Z,14.12
2018-09-26T16:55:17.783Z,14.06
2018-09-26T16:57:46.200Z,14.00
2018-09-26T17:00:14.577Z,14.07
2018-09-26T17:02:42.936Z,14.05
2018-09-26T17:05:11.480Z,14.14
2018-09-26T17:07:39.818Z,14.14
2018-09-26T17:10:08.232Z,14.15
2018-09-26T17:12:36.743Z,14.14
2018-09-26T17:15:05.363Z,14.21
2018-09-26T17:17:33.689Z,14.14
2018-09-26T17:20:02.269Z,14.20
2018-09-26T17:22:30.747Z,14.20
2018-09-26T17:24:59.092Z,14.26
2018-09-26T17:27:27.596Z,14.30
2018-09-26T17:29:55.937Z,14.34
2018-09-26T17:32:25.632Z,14.34
2018-09-26T17:34:54.093Z,14.50
2018-09-26T17:37:22.425Z,14.52
2018-09-26T17:39:50.750Z,14.61
2018-09-26T17:42:19.430Z,14.56
2018-09-26T17:44:47.810Z,14.48
2018-09-26T17:47:16.083Z,14.62
2018-09-26T17:49:44.409Z,14.67
2018-09-26T17:52:12.718Z,14.68
2018-09-26T17:54:41.222Z,14.67
2018-09-26T17:57:09.630Z,14.77
2018-09-26T17:59:37.935Z,14.77
2018-09-26T18:02:06.248Z,14.84
2018-09-26T18:04:34.607Z,14.88
2018-09-26T18:07:03.800Z,14.87
2018-09-26T18:09:32.114Z,14.85
2018-09-26T18:12:00.432Z,14.90
2018-09-26T18:14:28.716Z,14.95
2018-09-26T18:16:57.007Z,14.96
2018-09-26T18:19:25.310Z,14.90
2018-09-26T18:21:53.583Z,14.91
2018-09-26T18:24:22.760Z,14.77
2018-09-26T18:26:51.125Z,14.82
2018-09-26T18:29:19.804Z,14.84
2018-09-26T18:31:48.136Z,14.72
2018-09-26T18:34:16.489Z,14.68
2018-09-26T18:36:44.816Z,14.81
2018-09-26T18:39:13.150Z,14.83
2018-09-26T18:41:41.508Z,14.84
2018-09-26T18:44:09.823Z,14.88
2018-09-26T18:46:38.144Z,14.87
2018-09-26T18:49:06.508Z,14.77
2018-09-26T18:51:34.813Z,14.82
2018-09-26T18:54:03.135Z,14.86
2018-09-26T18:56:31.488Z,14.75
2018-09-26T18:58:59.828Z,14.68
2018-09-26T19:01:28.705Z,14.71
2018-09-26T19:03:57.119Z,14.80
2018-09-26T19:06:25.639Z,14.66
2018-09-26T19:08:54.118Z,14.60
2018-09-26T19:11:22.948Z,14.64
2018-09-26T19:13:51.303Z,14.69
2018-09-26T19:16:19.624Z,14.70
2018-09-26T19:18:48.043Z,14.74
2018-09-26T19:21:16.408Z,14.71
2018-09-26T19:23:44.904Z,14.71
2018-09-26T19:26:13.363Z,14.78
2018-09-26T19:28:41.684Z,14.82
2018-09-26T19:31:10.008Z,14.77
2018-09-26T19:33:38.424Z,14.81
2018-09-26T19:36:06.771Z,14.81
2018-09-26T19:38:35.325Z,14.73
2018-09-26T19:41:03.717Z,14.72
2018-09-26T19:43:32.037Z,14.77
2018-09-26T19:46:00.413Z,14.84
2018-09-26T19:48:28.878Z,14.81
2018-09-26T19:50:57.363Z,14.83
2018-09-26T19:53:26.684Z,14.86
2018-09-26T19:55:55.114Z,14.94
2018-09-26T19:58:24.673Z,14.86
2018-09-26T20:00:52.869Z,14.89
2018-09-26T20:03:21.233Z,14.91
2018-09-26T20:05:49.557Z,14.97
2018-09-26T20:08:17.890Z,14.98
2018-09-26T20:10:46.268Z,15.01
2018-09-26T20:13:14.653Z,14.97
2018-09-26T20:15:42.984Z,15.02
2018-09-26T20:18:11.380Z,15.11
2018-09-26T20:20:39.717Z,15.05
2018-09-26T20:23:08.129Z,15.08
2018-09-26T20:25:36.512Z,15.05
2018-09-26T20:28:05.120Z,15.06
2018-09-26T20:30:33.484Z,15.01
2018-09-26T20:33:01.927Z,14.98
2018-09-26T20:35:30.281Z,15.13
2018-09-26T20:37:58.568Z,15.02
2018-09-26T20:40:26.916Z,14.95
2018-09-26T20:42:55.287Z,15.11
2018-09-26T20:45:23.705Z,15.15
2018-09-26T20:47:52.029Z,15.05
2018-09-26T20:50:20.345Z,15.11
2018-09-26T20:52:48.677Z,15.10
2018-09-26T20:55:17.049Z,15.08
2018-09-26T20:57:46.600Z,15.11
2018-09-26T21:00:14.932Z,15.13
2018-09-26T21:02:43.513Z,15.12
2018-09-26T21:05:12.037Z,15.09
2018-09-26T21:07:40.382Z,15.11
2018-09-26T21:10:09.113Z,15.20
2018-09-26T21:12:37.432Z,15.14
2018-09-26T21:15:06.121Z,15.10
2018-09-26T21:17:35.303Z,15.15
2018-09-26T21:20:03.812Z,15.13
2018-09-26T21:22:32.292Z,15.21
2018-09-26T21:25:01.024Z,15.28
2018-09-26T21:27:29.355Z,15.27
2018-09-26T21:29:58.157Z,15.22
2018-09-26T21:32:26.496Z,15.22
2018-09-26T21:34:54.857Z,15.36
2018-09-26T21:37:23.585Z,15.28
2018-09-26T21:39:51.957Z,15.31
2018-09-26T21:42:20.304Z,15.33
2018-09-26T21:44:48.625Z,15.36
2018-09-26T21:47:17.156Z,15.31
2018-09-26T21:49:45.514Z,15.34
2018-09-26T21:52:13.845Z,15.38
2018-09-26T21:54:42.204Z,15.44
2018-09-26T21:57:10.557Z,15.48
2018-09-26T21:59:38.881Z,15.41
2018-09-26T22:02:07.321Z,15.39
2018-09-26T22:04:35.644Z,15.52
2018-09-26T22:07:03.972Z,15.57
2018-09-26T22:09:32.452Z,15.48
2018-09-26T22:12:00.899Z,15.49
2018-09-26T22:14:29.236Z,15.52
2018-09-26T22:16:57.588Z,15.58
2018-09-26T22:19:25.937Z,15.56
2018-09-26T22:21:54.272Z,15.57
2018-09-26T22:24:22.660Z,15.62
2018-09-26T22:26:51.013Z,15.54
2018-09-26T22:29:19.354Z,15.60
2018-09-26T22:31:47.957Z,15.63
2018-09-26T22:34:16.277Z,15.68
2018-09-26T22:36:44.637Z,15.69
2018-09-26T22:39:12.972Z,15.65
2018-09-26T22:41:41.292Z,15.65
2018-09-26T22:44:09.663Z,15.63
2018-09-26T22:46:38.522Z,15.68
2018-09-26T22:49:06.865Z,15.70
2018-09-26T22:51:35.200Z,15.73
2018-09-26T22:54:03.683Z,15.73
2018-09-26T22:56:32.003Z,15.73
2018-09-26T22:59:00.385Z,15.69
2018-09-26T23:01:28.744Z,15.72
2018-09-26T23:03:57.071Z,15.76
2018-09-26T23:06:25.400Z,15.78
2018-09-26T23:08:53.992Z,15.72
2018-09-26T23:11:22.611Z,15.77
2018-09-26T23:13:50.927Z,15.74
2018-09-26T23:16:19.299Z,15.78
2018-09-26T23:18:47.635Z,15.82
2018-09-26T23:21:15.956Z,15.76
2018-09-26T23:23:44.293Z,15.85
2018-09-26T23:26:12.611Z,15.81
2018-09-26T23:28:40.940Z,15.84
2018-09-26T23:31:09.315Z,15.87
2018-09-26T23:33:37.873Z,15.89
2018-09-26T23:36:06.250Z,15.86
2018-09-26T23:38:34.616Z,15.88
2018-09-26T23:41:02.949Z,15.87
2018-09-26T23:43:31.285Z,16.00
2018-09-26T23:45:59.756Z,15.93
2018-09-26T23:48:28.112Z,15.92
2018-09-26T23:50:56.452Z,15.97
2018-09-26T23:53:24.831Z,15.98
2018-09-26T23:55:53.139Z,15.92
2018-09-26T23:58:21.485Z,15.87
